sensor_id;sensor_type;location;lat;lon;timestamp;pressure;altitude;pressure_sealevel;temperature;humidity
25722;BME280;13578;53.450;15.496;2022-08-19T00:02:36;99410.06;;;19.93;100.00
25722;BME280;13578;53.450;15.496;2022-08-19T00:05:37;99406.03;;;20.02;100.00
25722;BME280;13578;53.450;15.496;2022-08-19T00:08:38;99407.53;;;20.05;100.00
25722;BME280;13578;53.450;15.496;2022-08-19T00:11:39;99403.91;;;20.04;100.00
25722;BME280;13578;53.450;15.496;2022-08-19T00:14:40;99412.66;;;20.01;100.00
25722;BME280;13578;53.450;15.496;2022-08-19T00:17:43;99424.91;;;20.13;100.00
25722;BME280;13578;53.450;15.496;2022-08-19T00:20:44;99416.78;;;20.12;100.00
25722;BME280;13578;53.450;15.496;2022-08-19T00:23:44;99413.75;;;20.13;100.00
25722;BME280;13578;53.450;15.496;2022-08-19T00:26:45;99416.38;;;20.15;100.00
25722;BME280;13578;53.450;15.496;2022-08-19T00:29:46;99424.06;;;20.13;100.00
25722;BME280;13578;53.450;15.496;2022-08-19T00:32:47;99429.19;;;20.09;100.00
25722;BME280;13578;53.450;15.496;2022-08-19T00:35:47;99436.88;;;20.07;100.00
25722;BME280;13578;53.450;15.496;2022-08-19T00:38:48;99436.47;;;20.10;100.00
25722;BME280;13578;53.450;15.496;2022-08-19T00:41:52;99427.88;;;20.05;100.00
25722;BME280;13578;53.450;15.496;2022-08-19T00:44:52;99426.44;;;20.23;100.00
25722;BME280;13578;53.450;15.496;2022-08-19T00:47:53;99415.22;;;20.03;100.00
25722;BME280;13578;53.450;15.496;2022-08-19T00:50:54;99424.72;;;20.22;100.00
25722;BME280;13578;53.450;15.496;2022-08-19T00:53:56;99410.16;;;20.26;100.00
25722;BME280;13578;53.450;15.496;2022-08-19T00:56:59;99408.22;;;20.27;100.00
25722;BME280;13578;53.450;15.496;2022-08-19T01:00:06;99406.09;;;20.29;100.00
25722;BME280;13578;53.450;15.496;2022-08-19T01:03:12;99399.66;;;20.35;100.00
25722;BME280;13578;53.450;15.496;2022-08-19T01:06:13;99390.88;;;20.38;100.00
25722;BME280;13578;53.450;15.496;2022-08-19T01:09:14;99384.00;;;20.34;100.00
25722;BME280;13578;53.450;15.496;2022-08-19T01:12:15;99381.66;;;20.31;100.00
25722;BME280;13578;53.450;15.496;2022-08-19T01:15:21;99379.09;;;20.36;100.00
25722;BME280;13578;53.450;15.496;2022-08-19T01:18:23;99382.72;;;20.30;100.00
25722;BME280;13578;53.450;15.496;2022-08-19T01:21:47;99385.53;;;20.37;100.00
25722;BME280;13578;53.450;15.496;2022-08-19T01:24:50;99380.16;;;20.35;100.00
25722;BME280;13578;53.450;15.496;2022-08-19T01:27:52;99385.31;;;20.38;100.00
25722;BME280;13578;53.450;15.496;2022-08-19T01:30:54;99382.09;;;20.35;100.00
25722;BME280;13578;53.450;15.496;2022-08-19T01:33:57;99384.66;;;20.36;100.00
25722;BME280;13578;53.450;15.496;2022-08-19T01:36:58;99380.16;;;20.28;100.00
25722;BME280;13578;53.450;15.496;2022-08-19T01:39:59;99375.22;;;20.30;100.00
25722;BME280;13578;53.450;15.496;2022-08-19T01:43:00;99371.81;;;20.28;100.00
25722;BME280;13578;53.450;15.496;2022-08-19T01:46:01;99366.66;;;20.25;100.00
25722;BME280;13578;53.450;15.496;2022-08-19T01:49:05;99370.97;;;20.35;100.00
25722;BME280;13578;53.450;15.496;2022-08-19T01:52:06;99365.34;;;20.28;100.00
25722;BME280;13578;53.450;15.496;2022-08-19T01:55:10;99370.97;;;20.35;100.00
25722;BME280;13578;53.450;15.496;2022-08-19T01:58:18;99372.44;;;20.24;100.00
25722;BME280;13578;53.450;15.496;2022-08-19T02:01:21;99360.22;;;20.25;100.00
25722;BME280;13578;53.450;15.496;2022-08-19T02:04:22;99349.28;;;20.23;100.00
25722;BME280;13578;53.450;15.496;2022-08-19T02:07:23;99343.94;;;20.22;100.00
25722;BME280;13578;53.450;15.496;2022-08-19T02:10:24;99334.06;;;20.19;100.00
25722;BME280;13578;53.450;15.496;2022-08-19T02:13:26;99333.66;;;20.15;100.00
25722;BME280;13578;53.450;15.496;2022-08-19T02:16:27;99343.50;;;20.18;100.00
25722;BME280;13578;53.450;15.496;2022-08-19T02:19:28;99340.28;;;20.14;100.00
25722;BME280;13578;53.450;15.496;2022-08-19T02:22:29;99335.38;;;20.17;100.00
25722;BME280;13578;53.450;15.496;2022-08-19T02:25:30;99346.28;;;20.18;100.00
25722;BME280;13578;53.450;15.496;2022-08-19T02:28:30;99349.69;;;20.13;100.00
25722;BME280;13578;53.450;15.496;2022-08-19T02:31:32;99346.94;;;20.20;100.00
25722;BME280;13578;53.450;15.496;2022-08-19T02:34:34;99353.34;;;20.07;100.00
25722;BME280;13578;53.450;15.496;2022-08-19T02:37:34;99342.22;;;20.14;100.00
25722;BME280;13578;53.450;15.496;2022-08-19T02:40:59;99343.06;;;20.14;100.00
25722;BME280;13578;53.450;15.496;2022-08-19T02:44:03;99341.78;;;20.17;100.00
25722;BME280;13578;53.450;15.496;2022-08-19T02:47:04;99331.50;;;20.11;100.00
25722;BME280;13578;53.450;15.496;2022-08-19T02:50:06;99338.75;;;20.05;100.00
25722;BME280;13578;53.450;15.496;2022-08-19T02:53:06;99338.13;;;20.03;100.00
25722;BME280;13578;53.450;15.496;2022-08-19T02:56:08;99332.75;;;20.02;100.00
25722;BME280;13578;53.450;15.496;2022-08-19T02:59:09;99328.06;;;20.02;100.00
25722;BME280;13578;53.450;15.496;2022-08-19T03:02:11;99329.34;;;19.99;100.00
25722;BME280;13578;53.450;15.496;2022-08-19T03:05:11;99330.63;;;19.97;100.00
25722;BME280;13578;53.450;15.496;2022-08-19T03:08:13;99341.13;;;19.95;100.00
25722;BME280;13578;53.450;15.496;2022-08-19T03:11:17;99352.88;;;19.90;100.00
25722;BME280;13578;53.450;15.496;2022-08-19T03:14:17;99345.38;;;19.91;100.00
25722;BME280;13578;53.450;15.496;2022-08-19T03:17:19;99340.25;;;19.88;100.00
25722;BME280;13578;53.450;15.496;2022-08-19T03:20:19;99348.53;;;19.81;100.00
25722;BME280;13578;53.450;15.496;2022-08-19T03:23:20;99339.38;;;19.87;100.00
25722;BME280;13578;53.450;15.496;2022-08-19T03:26:22;99341.53;;;19.92;100.00
25722;BME280;13578;53.450;15.496;2022-08-19T03:29:23;99330.53;;;19.83;100.00
25722;BME280;13578;53.450;15.496;2022-08-19T03:32:24;99317.97;;;19.88;100.00
25722;BME280;13578;53.450;15.496;2022-08-19T03:35:25;99313.00;;;19.83;100.00
25722;BME280;13578;53.450;15.496;2022-08-19T03:38:26;99302.56;;;19.85;100.00
25722;BME280;13578;53.450;15.496;2022-08-19T03:41:32;99307.50;;;19.90;100.00
25722;BME280;13578;53.450;15.496;2022-08-19T03:44:33;99310.91;;;19.92;100.00
25722;BME280;13578;53.450;15.496;2022-08-19T03:47:34;99318.84;;;19.95;100.00
25722;BME280;13578;53.450;15.496;2022-08-19T03:50:38;99315.00;;;19.96;100.00
25722;BME280;13578;53.450;15.496;2022-08-19T03:53:39;99316.72;;;19.97;100.00
25722;BME280;13578;53.450;15.496;2022-08-19T03:56:41;99308.13;;;19.98;100.00
25722;BME280;13578;53.450;15.496;2022-08-19T03:59:44;99306.19;;;19.99;100.00
25722;BME280;13578;53.450;15.496;2022-08-19T04:02:45;99306.66;;;20.09;100.00
25722;BME280;13578;53.450;15.496;2022-08-19T04:05:46;99301.50;;;20.06;100.00
25722;BME280;13578;53.450;15.496;2022-08-19T04:08:49;99294.44;;;20.17;100.00
25722;BME280;13578;53.450;15.496;2022-08-19T04:11:53;99298.50;;;20.28;100.00
25722;BME280;13578;53.450;15.496;2022-08-19T04:14:54;99289.09;;;20.36;100.00
25722;BME280;13578;53.450;15.496;2022-08-19T04:17:54;99302.56;;;20.39;100.00
25722;BME280;13578;53.450;15.496;2022-08-19T04:20:55;99299.78;;;20.39;100.00
25722;BME280;13578;53.450;15.496;2022-08-19T04:23:57;99306.88;;;20.35;100.00
25722;BME280;13578;53.450;15.496;2022-08-19T04:27:00;99307.28;;;20.45;100.00
25722;BME280;13578;53.450;15.496;2022-08-19T04:30:01;99305.59;;;20.37;100.00
25722;BME280;13578;53.450;15.496;2022-08-19T04:33:01;99317.38;;;20.39;100.00
25722;BME280;13578;53.450;15.496;2022-08-19T04:36:02;99317.16;;;20.47;100.00
25722;BME280;13578;53.450;15.496;2022-08-19T04:39:06;99322.53;;;20.56;100.00
25722;BME280;13578;53.450;15.496;2022-08-19T04:42:07;99326.34;;;20.61;100.00
25722;BME280;13578;53.450;15.496;2022-08-19T04:45:26;99337.94;;;20.65;100.00
25722;BME280;13578;53.450;15.496;2022-08-19T04:48:27;99331.94;;;20.82;100.00
25722;BME280;13578;53.450;15.496;2022-08-19T04:51:27;99327.66;;;20.79;100.00
25722;BME280;13578;53.450;15.496;2022-08-19T04:54:31;99317.59;;;20.78;100.00
25722;BME280;13578;53.450;15.496;2022-08-19T04:57:31;99317.34;;;20.79;100.00
25722;BME280;13578;53.450;15.496;2022-08-19T05:00:32;99313.53;;;20.74;100.00
25722;BME280;13578;53.450;15.496;2022-08-19T05:03:33;99317.81;;;20.76;100.00
25722;BME280;13578;53.450;15.496;2022-08-19T05:06:34;99326.38;;;20.82;100.00
25722;BME280;13578;53.450;15.496;2022-08-19T05:09:36;99330.22;;;20.87;100.00
25722;BME280;13578;53.450;15.496;2022-08-19T05:12:36;99329.16;;;20.82;100.00
25722;BME280;13578;53.450;15.496;2022-08-19T05:15:38;99331.06;;;20.88;100.00
25722;BME280;13578;53.450;15.496;2022-08-19T05:18:39;99330.19;;;20.94;100.00
25722;BME280;13578;53.450;15.496;2022-08-19T05:21:59;99322.72;;;20.94;100.00
25722;BME280;13578;53.450;15.496;2022-08-19T05:25:20;99313.28;;;20.96;100.00
25722;BME280;13578;53.450;15.496;2022-08-19T05:28:21;99319.28;;;20.99;100.00
25722;BME280;13578;53.450;15.496;2022-08-19T05:31:22;99315.78;;;21.10;100.00
25722;BME280;13578;53.450;15.496;2022-08-19T05:34:24;99314.72;;;21.12;100.00
25722;BME280;13578;53.450;15.496;2022-08-19T05:37:26;99309.97;;;21.19;100.00
25722;BME280;13578;53.450;15.496;2022-08-19T05:40:27;99312.75;;;21.19;100.00
25722;BME280;13578;53.450;15.496;2022-08-19T05:43:28;99317.69;;;21.17;100.00
25722;BME280;13578;53.450;15.496;2022-08-19T05:46:29;99317.75;;;21.10;100.00
25722;BME280;13578;53.450;15.496;2022-08-19T05:49:31;99314.50;;;21.13;100.00
25722;BME280;13578;53.450;15.496;2022-08-19T05:52:32;99314.53;;;21.06;100.00
25722;BME280;13578;53.450;15.496;2022-08-19T05:55:32;99315.13;;;21.15;100.00
25722;BME280;13578;53.450;15.496;2022-08-19T05:58:34;99310.41;;;21.16;100.00
25722;BME280;13578;53.450;15.496;2022-08-19T06:01:37;99313.84;;;21.18;100.00
25722;BME280;13578;53.450;15.496;2022-08-19T06:04:38;99315.56;;;21.19;100.00
25722;BME280;13578;53.450;15.496;2022-08-19T06:07:39;99310.84;;;21.13;100.00
25722;BME280;13578;53.450;15.496;2022-08-19T06:10:40;99314.50;;;21.13;100.00
25722;BME280;13578;53.450;15.496;2022-08-19T06:13:41;99313.41;;;21.21;100.00
25722;BME280;13578;53.450;15.496;2022-08-19T06:16:43;99312.94;;;21.24;100.00
25722;BME280;13578;53.450;15.496;2022-08-19T06:19:44;99301.94;;;21.42;100.00
25722;BME280;13578;53.450;15.496;2022-08-19T06:22:46;99295.66;;;21.61;100.00
25722;BME280;13578;53.450;15.496;2022-08-19T06:25:47;99293.31;;;21.57;100.00
25722;BME280;13578;53.450;15.496;2022-08-19T06:28:48;99306.97;;;21.72;100.00
25722;BME280;13578;53.450;15.496;2022-08-19T06:31:52;99315.91;;;21.88;100.00
25722;BME280;13578;53.450;15.496;2022-08-19T06:34:53;99315.19;;;21.99;100.00
25722;BME280;13578;53.450;15.496;2022-08-19T06:37:55;99317.72;;;22.08;100.00
25722;BME280;13578;53.450;15.496;2022-08-19T06:41:05;99316.84;;;22.07;100.00
25722;BME280;13578;53.450;15.496;2022-08-19T06:44:06;99310.44;;;22.00;100.00
25722;BME280;13578;53.450;15.496;2022-08-19T06:47:09;99304.69;;;21.95;100.00
25722;BME280;13578;53.450;15.496;2022-08-19T06:50:11;99323.59;;;21.93;100.00
25722;BME280;13578;53.450;15.496;2022-08-19T06:53:12;99325.53;;;21.92;100.00
25722;BME280;13578;53.450;15.496;2022-08-19T06:56:14;99304.53;;;21.83;100.00
25722;BME280;13578;53.450;15.496;2022-08-19T06:59:18;99309.28;;;21.82;100.00
25722;BME280;13578;53.450;15.496;2022-08-19T07:02:19;99299.28;;;21.68;100.00
25722;BME280;13578;53.450;15.496;2022-08-19T07:05:20;99303.06;;;21.80;100.00
25722;BME280;13578;53.450;15.496;2022-08-19T07:08:21;99296.22;;;21.76;100.00
25722;BME280;13578;53.450;15.496;2022-08-19T07:11:21;99298.53;;;21.79;100.00
25722;BME280;13578;53.450;15.496;2022-08-19T07:14:25;99295.56;;;21.81;100.00
25722;BME280;13578;53.450;15.496;2022-08-19T07:17:27;99308.91;;;21.72;100.00
25722;BME280;13578;53.450;15.496;2022-08-19T07:20:27;99301.84;;;21.69;100.00
25722;BME280;13578;53.450;15.496;2022-08-19T07:23:28;99300.94;;;21.76;100.00
25722;BME280;13578;53.450;15.496;2022-08-19T07:26:31;99299.44;;;21.73;100.00
25722;BME280;13578;53.450;15.496;2022-08-19T07:29:34;99295.75;;;21.79;100.00
25722;BME280;13578;53.450;15.496;2022-08-19T07:32:35;99285.47;;;21.80;100.00
25722;BME280;13578;53.450;15.496;2022-08-19T07:35:35;99291.34;;;21.97;100.00
25722;BME280;13578;53.450;15.496;2022-08-19T07:38:37;99290.63;;;22.08;100.00
25722;BME280;13578;53.450;15.496;2022-08-19T07:41:38;99298.00;;;22.28;100.00
25722;BME280;13578;53.450;15.496;2022-08-19T07:44:40;99294.94;;;22.61;100.00
25722;BME280;13578;53.450;15.496;2022-08-19T07:47:41;99302.97;;;22.76;100.00
25722;BME280;13578;53.450;15.496;2022-08-19T07:50:41;99297.16;;;22.96;100.00
25722;BME280;13578;53.450;15.496;2022-08-19T07:53:43;99297.94;;;23.04;100.00
25722;BME280;13578;53.450;15.496;2022-08-19T07:56:45;99302.63;;;23.10;100.00
25722;BME280;13578;53.450;15.496;2022-08-19T07:59:45;99303.31;;;23.05;100.00
25722;BME280;13578;53.450;15.496;2022-08-19T08:02:46;99319.28;;;23.23;100.00
25722;BME280;13578;53.450;15.496;2022-08-19T08:05:47;99338.72;;;23.18;100.00
25722;BME280;13578;53.450;15.496;2022-08-19T08:09:07;99353.09;;;23.22;100.00
25722;BME280;13578;53.450;15.496;2022-08-19T08:15:14;99316.75;;;23.15;100.00
25722;BME280;13578;53.450;15.496;2022-08-19T08:18:18;99322.91;;;22.61;100.00
25722;BME280;13578;53.450;15.496;2022-08-19T08:21:20;99334.66;;;22.45;100.00
25722;BME280;13578;53.450;15.496;2022-08-19T08:24:22;99334.91;;;22.36;100.00
25722;BME280;13578;53.450;15.496;2022-08-19T08:27:23;99331.84;;;22.13;100.00
25722;BME280;13578;53.450;15.496;2022-08-19T08:30:25;99328.78;;;22.21;100.00
25722;BME280;13578;53.450;15.496;2022-08-19T08:33:27;99313.16;;;22.13;100.00
25722;BME280;13578;53.450;15.496;2022-08-19T08:36:29;99308.16;;;22.22;100.00
25722;BME280;13578;53.450;15.496;2022-08-19T08:39:33;99301.75;;;22.15;100.00
25722;BME280;13578;53.450;15.496;2022-08-19T08:42:40;99303.06;;;22.12;100.00
25722;BME280;13578;53.450;15.496;2022-08-19T08:45:49;99307.75;;;22.18;100.00
25722;BME280;13578;53.450;15.496;2022-08-19T08:49:04;99314.91;;;22.08;100.00
25722;BME280;13578;53.450;15.496;2022-08-19T08:52:18;99329.16;;;21.99;100.00
25722;BME280;13578;53.450;15.496;2022-08-19T08:55:26;99345.66;;;22.08;100.00
25722;BME280;13578;53.450;15.496;2022-08-19T08:58:29;99363.22;;;22.15;100.00
25722;BME280;13578;53.450;15.496;2022-08-19T09:01:32;99352.28;;;22.13;100.00
25722;BME280;13578;53.450;15.496;2022-08-19T09:04:34;99359.09;;;22.24;100.00
25722;BME280;13578;53.450;15.496;2022-08-19T09:07:56;99353.00;;;22.34;100.00
25722;BME280;13578;53.450;15.496;2022-08-19T09:10:59;99351.69;;;22.36;100.00
25722;BME280;13578;53.450;15.496;2022-08-19T09:17:20;99346.75;;;22.32;100.00
25722;BME280;13578;53.450;15.496;2022-08-19T09:20:30;99363.13;;;22.28;100.00
25722;BME280;13578;53.450;15.496;2022-08-19T09:23:31;99367.88;;;22.28;100.00
25722;BME280;13578;53.450;15.496;2022-08-19T09:26:32;99358.09;;;22.37;100.00
25722;BME280;13578;53.450;15.496;2022-08-19T09:29:34;99333.94;;;22.24;100.00
25722;BME280;13578;53.450;15.496;2022-08-19T09:32:35;99331.81;;;22.19;100.00
25722;BME280;13578;53.450;15.496;2022-08-19T09:35:35;99316.84;;;22.07;100.00
25722;BME280;13578;53.450;15.496;2022-08-19T09:38:37;99309.09;;;22.09;100.00
25722;BME280;13578;53.450;15.496;2022-08-19T09:41:40;99316.81;;;22.14;100.00
25722;BME280;13578;53.450;15.496;2022-08-19T09:44:41;99314.94;;;22.33;100.00
25722;BME280;13578;53.450;15.496;2022-08-19T09:47:43;99329.19;;;22.25;100.00
25722;BME280;13578;53.450;15.496;2022-08-19T09:50:43;99325.25;;;22.32;100.00
25722;BME280;13578;53.450;15.496;2022-08-19T09:53:44;99311.63;;;22.17;100.00
25722;BME280;13578;53.450;15.496;2022-08-19T09:56:45;99311.50;;;22.31;100.00
25722;BME280;13578;53.450;15.496;2022-08-19T09:59:46;99306.22;;;22.48;100.00
25722;BME280;13578;53.450;15.496;2022-08-19T10:02:55;99290.72;;;22.52;100.00
25722;BME280;13578;53.450;15.496;2022-08-19T10:05:58;99292.34;;;23.04;100.00
25722;BME280;13578;53.450;15.496;2022-08-19T10:08:59;99284.19;;;23.02;100.00
25722;BME280;13578;53.450;15.496;2022-08-19T10:12:02;99287.66;;;23.23;100.00
25722;BME280;13578;53.450;15.496;2022-08-19T10:15:04;99297.78;;;23.54;100.00
25722;BME280;13578;53.450;15.496;2022-08-19T10:18:05;99286.28;;;23.62;100.00
25722;BME280;13578;53.450;15.496;2022-08-19T10:21:17;99272.72;;;23.59;100.00
25722;BME280;13578;53.450;15.496;2022-08-19T10:24:18;99275.28;;;23.91;100.00
25722;BME280;13578;53.450;15.496;2022-08-19T10:27:20;99268.66;;;24.04;100.00
25722;BME280;13578;53.450;15.496;2022-08-19T10:30:22;99266.38;;;24.13;100.00
25722;BME280;13578;53.450;15.496;2022-08-19T10:33:22;99259.56;;;24.33;100.00
25722;BME280;13578;53.450;15.496;2022-08-19T10:36:28;99267.63;;;24.41;100.00
25722;BME280;13578;53.450;15.496;2022-08-19T10:39:30;99258.75;;;24.56;100.00
25722;BME280;13578;53.450;15.496;2022-08-19T10:42:31;99260.97;;;24.78;100.00
25722;BME280;13578;53.450;15.496;2022-08-19T10:45:32;99248.50;;;24.85;100.00
25722;BME280;13578;53.450;15.496;2022-08-19T10:48:33;99243.34;;;24.94;100.00
25722;BME280;13578;53.450;15.496;2022-08-19T10:51:34;99246.56;;;25.27;100.00
25722;BME280;13578;53.450;15.496;2022-08-19T10:54:53;99228.63;;;25.28;100.00
25722;BME280;13578;53.450;15.496;2022-08-19T10:58:15;99234.28;;;25.57;100.00
25722;BME280;13578;53.450;15.496;2022-08-19T11:01:17;99233.97;;;25.70;100.00
25722;BME280;13578;53.450;15.496;2022-08-19T11:04:18;99236.91;;;25.75;100.00
25722;BME280;13578;53.450;15.496;2022-08-19T11:07:19;99240.22;;;25.89;100.00
25722;BME280;13578;53.450;15.496;2022-08-19T11:10:21;99218.19;;;25.81;100.00
25722;BME280;13578;53.450;15.496;2022-08-19T11:13:23;99215.53;;;25.74;100.00
25722;BME280;13578;53.450;15.496;2022-08-19T11:16:26;99206.69;;;25.82;100.00
25722;BME280;13578;53.450;15.496;2022-08-19T11:19:29;99206.34;;;25.96;100.00
25722;BME280;13578;53.450;15.496;2022-08-19T11:22:30;99206.31;;;26.08;100.00
25722;BME280;13578;53.450;15.496;2022-08-19T11:25:31;99198.63;;;26.20;100.00
25722;BME280;13578;53.450;15.496;2022-08-19T11:28:31;99206.53;;;26.06;100.00
25722;BME280;13578;53.450;15.496;2022-08-19T11:31:34;99184.50;;;26.15;100.00
25722;BME280;13578;53.450;15.496;2022-08-19T11:34:39;99194.19;;;26.07;100.00
25722;BME280;13578;53.450;15.496;2022-08-19T11:37:40;99197.59;;;26.26;100.00
25722;BME280;13578;53.450;15.496;2022-08-19T11:40:41;99200.16;;;26.45;100.00
25722;BME280;13578;53.450;15.496;2022-08-19T11:43:42;99196.81;;;26.48;100.00
25722;BME280;13578;53.450;15.496;2022-08-19T11:46:45;99207.00;;;26.71;100.00
25722;BME280;13578;53.450;15.496;2022-08-19T11:49:47;99192.34;;;26.69;100.00
25722;BME280;13578;53.450;15.496;2022-08-19T11:52:47;99185.66;;;26.92;100.00
25722;BME280;13578;53.450;15.496;2022-08-19T11:55:52;99178.25;;;26.86;100.00
25722;BME280;13578;53.450;15.496;2022-08-19T11:58:56;99182.50;;;27.11;100.00
25722;BME280;13578;53.450;15.496;2022-08-19T12:01:57;99174.50;;;27.25;100.00
25722;BME280;13578;53.450;15.496;2022-08-19T12:04:58;99180.59;;;27.39;100.00
25722;BME280;13578;53.450;15.496;2022-08-19T12:07:58;99164.88;;;27.43;100.00
25722;BME280;13578;53.450;15.496;2022-08-19T12:10:59;99170.09;;;27.56;100.00
25722;BME280;13578;53.450;15.496;2022-08-19T12:14:02;99175.03;;;27.71;100.00
25722;BME280;13578;53.450;15.496;2022-08-19T12:17:03;99178.97;;;28.03;100.00
25722;BME280;13578;53.450;15.496;2022-08-19T12:20:07;99179.09;;;27.86;100.00
25722;BME280;13578;53.450;15.496;2022-08-19T12:23:09;99184.50;;;28.20;100.00
25722;BME280;13578;53.450;15.496;2022-08-19T12:26:11;99178.34;;;28.28;100.00
25722;BME280;13578;53.450;15.496;2022-08-19T12:29:11;99188.47;;;28.19;100.00
25722;BME280;13578;53.450;15.496;2022-08-19T12:32:12;99204.78;;;28.17;100.00
25722;BME280;13578;53.450;15.496;2022-08-19T12:35:13;99208.09;;;28.09;100.00
25722;BME280;13578;53.450;15.496;2022-08-19T12:38:14;99211.88;;;27.92;100.00
25722;BME280;13578;53.450;15.496;2022-08-19T12:41:16;99198.94;;;27.96;100.00
25722;BME280;13578;53.450;15.496;2022-08-19T12:44:18;99198.16;;;28.01;100.00
25722;BME280;13578;53.450;15.496;2022-08-19T12:47:19;99197.25;;;27.95;100.00
25722;BME280;13578;53.450;15.496;2022-08-19T12:50:21;99183.97;;;27.96;100.00
25722;BME280;13578;53.450;15.496;2022-08-19T12:53:22;99191.63;;;28.00;100.00
25722;BME280;13578;53.450;15.496;2022-08-19T12:56:23;99185.34;;;27.88;100.00
25722;BME280;13578;53.450;15.496;2022-08-19T12:59:25;99187.22;;;27.77;100.00
25722;BME280;13578;53.450;15.496;2022-08-19T13:02:25;99186.63;;;27.75;100.00
25722;BME280;13578;53.450;15.496;2022-08-19T13:05:29;99181.56;;;27.77;100.00
25722;BME280;13578;53.450;15.496;2022-08-19T13:08:30;99183.91;;;27.58;100.00
25722;BME280;13578;53.450;15.496;2022-08-19T13:11:31;99183.59;;;27.54;100.00
25722;BME280;13578;53.450;15.496;2022-08-19T13:14:35;99188.28;;;27.44;100.00
25722;BME280;13578;53.450;15.496;2022-08-19T13:17:36;99178.56;;;27.34;100.00
25722;BME280;13578;53.450;15.496;2022-08-19T13:20:38;99185.53;;;27.26;100.00
25722;BME280;13578;53.450;15.496;2022-08-19T13:23:41;99176.56;;;27.07;100.00
25722;BME280;13578;53.450;15.496;2022-08-19T13:26:42;99171.78;;;27.08;100.00
25722;BME280;13578;53.450;15.496;2022-08-19T13:29:42;99170.59;;;27.04;100.00
25722;BME280;13578;53.450;15.496;2022-08-19T13:33:03;99177.06;;;27.04;100.00
25722;BME280;13578;53.450;15.496;2022-08-19T13:36:14;99171.00;;;26.90;100.00
25722;BME280;13578;53.450;15.496;2022-08-19T13:39:14;99174.00;;;26.84;100.00
25722;BME280;13578;53.450;15.496;2022-08-19T13:42:15;99194.06;;;26.70;100.00
25722;BME280;13578;53.450;15.496;2022-08-19T13:45:21;99205.50;;;26.46;100.00
25722;BME280;13578;53.450;15.496;2022-08-19T13:48:24;99199.47;;;26.38;100.00
25722;BME280;13578;53.450;15.496;2022-08-19T13:51:25;99204.38;;;25.96;100.00
25722;BME280;13578;53.450;15.496;2022-08-19T13:54:26;99213.31;;;25.76;100.00
25722;BME280;13578;53.450;15.496;2022-08-19T13:57:27;99236.00;;;25.58;100.00
25722;BME280;13578;53.450;15.496;2022-08-19T14:00:32;99241.06;;;25.44;100.00
25722;BME280;13578;53.450;15.496;2022-08-19T14:03:33;99221.16;;;25.33;100.00
25722;BME280;13578;53.450;15.496;2022-08-19T14:06:35;99198.28;;;25.13;100.00
25722;BME280;13578;53.450;15.496;2022-08-19T14:09:36;99182.91;;;25.15;100.00
25722;BME280;13578;53.450;15.496;2022-08-19T14:12:37;99179.03;;;25.04;100.00
25722;BME280;13578;53.450;15.496;2022-08-19T14:15:38;99187.69;;;25.15;100.00
25722;BME280;13578;53.450;15.496;2022-08-19T14:18:39;99195.69;;;25.23;100.00
25722;BME280;13578;53.450;15.496;2022-08-19T14:21:40;99204.78;;;25.42;100.00
25722;BME280;13578;53.450;15.496;2022-08-19T14:24:41;99206.88;;;25.64;100.00
25722;BME280;13578;53.450;15.496;2022-08-19T14:27:42;99205.31;;;25.68;100.00
25722;BME280;13578;53.450;15.496;2022-08-19T14:30:43;99199.03;;;25.49;100.00
25722;BME280;13578;53.450;15.496;2022-08-19T14:33:46;99207.78;;;25.24;100.00
25722;BME280;13578;53.450;15.496;2022-08-19T14:36:48;99222.19;;;25.15;100.00
25722;BME280;13578;53.450;15.496;2022-08-19T14:39:48;99218.78;;;25.13;100.00
25722;BME280;13578;53.450;15.496;2022-08-19T14:42:49;99204.28;;;25.04;100.00
25722;BME280;13578;53.450;15.496;2022-08-19T14:45:50;99217.63;;;24.85;100.00
25722;BME280;13578;53.450;15.496;2022-08-19T14:48:50;99207.28;;;24.74;100.00
25722;BME280;13578;53.450;15.496;2022-08-19T14:51:51;99197.28;;;24.66;100.00
25722;BME280;13578;53.450;15.496;2022-08-19T14:54:52;99184.97;;;24.55;100.00
25722;BME280;13578;53.450;15.496;2022-08-19T14:57:53;99171.31;;;24.47;100.00
25722;BME280;13578;53.450;15.496;2022-08-19T15:00:54;99171.44;;;24.52;100.00
25722;BME280;13578;53.450;15.496;2022-08-19T15:03:55;99192.38;;;24.50;100.00
25722;BME280;13578;53.450;15.496;2022-08-19T15:06:56;99211.53;;;24.53;100.00
25722;BME280;13578;53.450;15.496;2022-08-19T15:09:57;99204.22;;;24.64;100.00
25722;BME280;13578;53.450;15.496;2022-08-19T15:12:57;99219.84;;;24.71;100.00
25722;BME280;13578;53.450;15.496;2022-08-19T15:15:58;99244.84;;;24.61;100.00
25722;BME280;13578;53.450;15.496;2022-08-19T15:19:00;99258.72;;;24.44;100.00
25722;BME280;13578;53.450;15.496;2022-08-19T15:22:01;99267.84;;;24.27;100.00
25722;BME280;13578;53.450;15.496;2022-08-19T15:25:03;99289.00;;;24.00;100.00
25722;BME280;13578;53.450;15.496;2022-08-19T15:28:04;99319.44;;;23.77;100.00
25722;BME280;13578;53.450;15.496;2022-08-19T15:31:04;99328.97;;;23.58;100.00
25722;BME280;13578;53.450;15.496;2022-08-19T15:34:05;99327.13;;;23.33;100.00
25722;BME280;13578;53.450;15.496;2022-08-19T15:37:06;99321.84;;;23.25;100.00
25722;BME280;13578;53.450;15.496;2022-08-19T15:40:08;99332.88;;;23.20;100.00
25722;BME280;13578;53.450;15.496;2022-08-19T15:43:09;99313.16;;;23.08;100.00
25722;BME280;13578;53.450;15.496;2022-08-19T15:46:10;99312.09;;;23.09;100.00
25722;BME280;13578;53.450;15.496;2022-08-19T15:49:13;99325.94;;;23.04;100.00